N738BJ KPDX-KBFI
Flight info
| Callsign | N738BJ |
|---|---|
| Flight time | 0h 28m |
| Altitude | 16000 |
| Route | BTG OLM2 |
| Aircraft | B738/M-SDE2E3FGHIRWXY/LB1 |
Departure
| Time | 2026-05-04 20:29 |
|---|---|
| Airport | Portland International Airport (KPDX) |
Arrival
| Time | 2026-05-04 20:57 |
|---|---|
| Airport | King County International Airport - Boeing Field (KBFI) |
| Time | Latitude | Longitude | Altitude | Speed | Heading |
|---|---|---|---|---|---|
| 2026-05-04 19:17 | 45.58485 | -122.57752 | 29 ft | 0 kts | 297° |
| 2026-05-04 19:39 | 45.58485 | -122.57751 | 29 ft | 2 kts | 297° |
| 2026-05-04 19:39 | 45.58485 | -122.57752 | 29 ft | 0 kts | 297° |
| 2026-05-04 20:25 | 45.58486 | -122.57754 | 29 ft | 0 kts | 297° |
| 2026-05-04 20:25 | 45.58496 | -122.57773 | 29 ft | 6 kts | 318° |
| 2026-05-04 20:26 | 45.58509 | -122.57778 | 30 ft | 3 kts | 1° |
| 2026-05-04 20:26 | 45.58554 | -122.57718 | 29 ft | 12 kts | 46° |
| 2026-05-04 20:26 | 45.58592 | -122.57618 | 31 ft | 12 kts | 99° |
| 2026-05-04 20:26 | 45.58553 | -122.57502 | 30 ft | 17 kts | 118° |
| 2026-05-04 20:27 | 45.58488 | -122.57333 | 28 ft | 20 kts | 119° |
| 2026-05-04 20:27 | 45.58420 | -122.57163 | 28 ft | 19 kts | 120° |
| 2026-05-04 20:27 | 45.58356 | -122.57000 | 30 ft | 19 kts | 119° |
| 2026-05-04 20:27 | 45.58293 | -122.56842 | 31 ft | 18 kts | 120° |
| 2026-05-04 20:28 | 45.58277 | -122.56744 | 30 ft | 9 kts | 78° |
| 2026-05-04 20:28 | 45.58351 | -122.56692 | 30 ft | 14 kts | 340° |
| 2026-05-04 20:28 | 45.58440 | -122.56884 | 29 ft | 60 kts | 298° |
| 2026-05-04 20:28 | 45.58823 | -122.57876 | 55 ft | 162 kts | 298° |
| 2026-05-04 20:29 | 45.59393 | -122.59309 | 1325 ft | 158 kts | 297° |
| 2026-05-04 20:29 | 45.59939 | -122.60651 | 2678 ft | 166 kts | 309° |
| 2026-05-04 20:29 | 45.61002 | -122.61562 | 3317 ft | 200 kts | 347° |
| 2026-05-04 20:29 | 45.62510 | -122.61536 | 3662 ft | 235 kts | 7° |
| 2026-05-04 20:30 | 45.64201 | -122.61213 | 4210 ft | 256 kts | 7° |
| 2026-05-04 20:30 | 45.66015 | -122.60855 | 5131 ft | 267 kts | 7° |
| 2026-05-04 20:30 | 45.67854 | -122.60498 | 6327 ft | 268 kts | 7° |
| 2026-05-04 20:30 | 45.69710 | -122.60147 | 7458 ft | 271 kts | 7° |
| 2026-05-04 20:31 | 45.71604 | -122.59793 | 8513 ft | 277 kts | 7° |
| 2026-05-04 20:31 | 45.73529 | -122.59437 | 9570 ft | 280 kts | 7° |
| 2026-05-04 20:31 | 45.75458 | -122.59259 | 10604 ft | 284 kts | 355° |
| 2026-05-04 20:31 | 45.77460 | -122.59679 | 11334 ft | 302 kts | 350° |
| 2026-05-04 20:32 | 45.79634 | -122.60248 | 11589 ft | 333 kts | 349° |
| 2026-05-04 20:32 | 45.82009 | -122.60887 | 11810 ft | 361 kts | 349° |
| 2026-05-04 20:32 | 45.84564 | -122.61562 | 12022 ft | 384 kts | 350° |
| 2026-05-04 20:32 | 45.87236 | -122.62252 | 12545 ft | 395 kts | 350° |
| 2026-05-04 20:33 | 45.89958 | -122.62942 | 13301 ft | 398 kts | 350° |
| 2026-05-04 20:33 | 45.92697 | -122.63629 | 14080 ft | 401 kts | 351° |
| 2026-05-04 20:33 | 45.95465 | -122.64318 | 14799 ft | 406 kts | 351° |
| 2026-05-04 20:33 | 45.98264 | -122.65012 | 15477 ft | 410 kts | 351° |
| 2026-05-04 20:34 | 46.01084 | -122.65713 | 15914 ft | 410 kts | 351° |
| 2026-05-04 20:34 | 46.03902 | -122.66415 | 15983 ft | 411 kts | 351° |
| 2026-05-04 20:34 | 46.06723 | -122.67118 | 15988 ft | 412 kts | 351° |
| 2026-05-04 20:34 | 46.09546 | -122.67824 | 15989 ft | 412 kts | 351° |
| 2026-05-04 20:35 | 46.12373 | -122.68533 | 15985 ft | 412 kts | 351° |
| 2026-05-04 20:35 | 46.15202 | -122.69243 | 15994 ft | 412 kts | 351° |
| 2026-05-04 20:35 | 46.18030 | -122.69955 | 15988 ft | 412 kts | 351° |
| 2026-05-04 20:35 | 46.20852 | -122.70667 | 15992 ft | 412 kts | 351° |
| 2026-05-04 20:36 | 46.23671 | -122.71379 | 15991 ft | 412 kts | 351° |
| 2026-05-04 20:36 | 46.26496 | -122.72092 | 15987 ft | 412 kts | 351° |
| 2026-05-04 20:36 | 46.29317 | -122.72806 | 15983 ft | 412 kts | 351° |
| 2026-05-04 20:36 | 46.32144 | -122.73519 | 15969 ft | 412 kts | 351° |
| 2026-05-04 20:37 | 46.34966 | -122.74229 | 15978 ft | 412 kts | 351° |
| 2026-05-04 20:37 | 46.37788 | -122.74946 | 15984 ft | 411 kts | 351° |
| 2026-05-04 20:37 | 46.40606 | -122.75663 | 15975 ft | 412 kts | 351° |
| 2026-05-04 20:37 | 46.43431 | -122.76381 | 15970 ft | 412 kts | 351° |
| 2026-05-04 20:38 | 46.46258 | -122.77101 | 15968 ft | 412 kts | 351° |
| 2026-05-04 20:38 | 46.49045 | -122.77812 | 15966 ft | 412 kts | 351° |
| 2026-05-04 20:38 | 46.51860 | -122.78533 | 15999 ft | 411 kts | 351° |
| 2026-05-04 20:38 | 46.54688 | -122.79261 | 15967 ft | 412 kts | 351° |
| 2026-05-04 20:39 | 46.57512 | -122.79980 | 15958 ft | 412 kts | 351° |
| 2026-05-04 20:39 | 46.60323 | -122.80702 | 15984 ft | 411 kts | 351° |
| 2026-05-04 20:39 | 46.63160 | -122.81433 | 15944 ft | 413 kts | 351° |
| 2026-05-04 20:39 | 46.65988 | -122.82153 | 15946 ft | 412 kts | 351° |
| 2026-05-04 20:40 | 46.68817 | -122.82873 | 15948 ft | 412 kts | 351° |
| 2026-05-04 20:40 | 46.71635 | -122.83592 | 15947 ft | 412 kts | 351° |
| 2026-05-04 20:40 | 46.74461 | -122.84317 | 15944 ft | 412 kts | 351° |
| 2026-05-04 20:40 | 46.77278 | -122.85042 | 15946 ft | 412 kts | 351° |
| 2026-05-04 20:41 | 46.80100 | -122.85770 | 15942 ft | 412 kts | 351° |
| 2026-05-04 20:41 | 46.82927 | -122.86499 | 15923 ft | 412 kts | 351° |
| 2026-05-04 20:41 | 46.85747 | -122.87226 | 15941 ft | 411 kts | 351° |
| 2026-05-04 20:41 | 46.88563 | -122.87955 | 15943 ft | 411 kts | 351° |
| 2026-05-04 20:42 | 46.91383 | -122.88685 | 15937 ft | 412 kts | 351° |
| 2026-05-04 20:42 | 46.94217 | -122.89307 | 15928 ft | 411 kts | 358° |
| 2026-05-04 20:42 | 46.96981 | -122.88778 | 15945 ft | 391 kts | 17° |
| 2026-05-04 20:42 | 46.99341 | -122.87266 | 15929 ft | 371 kts | 30° |
| 2026-05-04 20:43 | 47.01320 | -122.85084 | 15939 ft | 352 kts | 40° |
| 2026-05-04 20:43 | 47.03098 | -122.82759 | 15911 ft | 335 kts | 40° |
| 2026-05-04 20:43 | 47.04818 | -122.80503 | 15638 ft | 328 kts | 40° |
| 2026-05-04 20:43 | 47.06511 | -122.78297 | 15288 ft | 324 kts | 40° |
| 2026-05-04 20:44 | 47.08199 | -122.76128 | 14869 ft | 322 kts | 40° |
| 2026-05-04 20:44 | 47.09886 | -122.73973 | 14455 ft | 320 kts | 39° |
| 2026-05-04 20:44 | 47.11565 | -122.71828 | 14035 ft | 319 kts | 39° |
| 2026-05-04 20:44 | 47.13233 | -122.69694 | 13619 ft | 317 kts | 40° |
| 2026-05-04 20:45 | 47.14893 | -122.67568 | 13197 ft | 316 kts | 40° |
| 2026-05-04 20:45 | 47.16548 | -122.65446 | 12777 ft | 315 kts | 40° |
| 2026-05-04 20:45 | 47.18191 | -122.63338 | 12361 ft | 313 kts | 40° |
| 2026-05-04 20:45 | 47.19831 | -122.61232 | 11941 ft | 312 kts | 40° |
| 2026-05-04 20:46 | 47.21486 | -122.59168 | 11518 ft | 311 kts | 34° |
| 2026-05-04 20:46 | 47.23437 | -122.57895 | 11087 ft | 308 kts | 12° |
| 2026-05-04 20:46 | 47.25548 | -122.57448 | 10665 ft | 306 kts | 5° |
| 2026-05-04 20:46 | 47.27652 | -122.57139 | 10439 ft | 299 kts | 5° |
| 2026-05-04 20:47 | 47.29693 | -122.56853 | 10276 ft | 291 kts | 5° |
| 2026-05-04 20:47 | 47.31677 | -122.56564 | 10133 ft | 281 kts | 5° |
| 2026-05-04 20:47 | 47.33607 | -122.56278 | 10009 ft | 277 kts | 5° |
| 2026-05-04 20:47 | 47.35529 | -122.55985 | 9696 ft | 279 kts | 5° |
| 2026-05-04 20:48 | 47.37460 | -122.55682 | 9402 ft | 278 kts | 5° |
| 2026-05-04 20:48 | 47.39379 | -122.55380 | 9098 ft | 277 kts | 5° |
| 2026-05-04 20:48 | 47.41297 | -122.55074 | 8780 ft | 276 kts | 5° |
| 2026-05-04 20:48 | 47.43205 | -122.54770 | 8474 ft | 275 kts | 5° |
| 2026-05-04 20:49 | 47.45107 | -122.54476 | 8164 ft | 275 kts | 5° |
| 2026-05-04 20:49 | 47.47006 | -122.54372 | 7835 ft | 274 kts | 353° |
| 2026-05-04 20:49 | 47.48878 | -122.54857 | 7516 ft | 271 kts | 346° |
| 2026-05-04 20:49 | 47.50721 | -122.55451 | 7206 ft | 271 kts | 347° |
| 2026-05-04 20:50 | 47.52565 | -122.56012 | 6885 ft | 270 kts | 348° |
| 2026-05-04 20:50 | 47.54406 | -122.56556 | 6566 ft | 269 kts | 348° |
| 2026-05-04 20:50 | 47.56228 | -122.57071 | 6245 ft | 269 kts | 348° |
| 2026-05-04 20:50 | 47.58064 | -122.57589 | 5930 ft | 269 kts | 348° |
| 2026-05-04 20:51 | 47.59904 | -122.58099 | 5597 ft | 269 kts | 349° |
| 2026-05-04 20:51 | 47.61736 | -122.58601 | 5278 ft | 268 kts | 350° |
| 2026-05-04 20:51 | 47.63583 | -122.58445 | 4936 ft | 269 kts | 18° |
| 2026-05-04 20:51 | 47.65283 | -122.57349 | 4636 ft | 267 kts | 25° |
| 2026-05-04 20:52 | 47.66847 | -122.55883 | 4269 ft | 268 kts | 46° |
| 2026-05-04 20:52 | 47.67746 | -122.53545 | 3980 ft | 259 kts | 75° |
| 2026-05-04 20:52 | 47.67885 | -122.50931 | 3668 ft | 253 kts | 96° |
| 2026-05-04 20:52 | 47.67645 | -122.48385 | 3371 ft | 245 kts | 99° |
| 2026-05-04 20:53 | 47.67088 | -122.46063 | 3048 ft | 238 kts | 127° |
| 2026-05-04 20:53 | 47.65988 | -122.44309 | 2803 ft | 228 kts | 136° |
| 2026-05-04 20:53 | 47.64866 | -122.42677 | 2531 ft | 223 kts | 136° |
| 2026-05-04 20:53 | 47.63764 | -122.41096 | 2322 ft | 218 kts | 140° |
| 2026-05-04 20:54 | 47.62628 | -122.39624 | 1989 ft | 215 kts | 134° |
| 2026-05-04 20:54 | 47.61677 | -122.38035 | 1734 ft | 198 kts | 133° |
| 2026-05-04 20:54 | 47.60707 | -122.36738 | 1533 ft | 179 kts | 149° |
| 2026-05-04 20:54 | 47.59669 | -122.35858 | 1340 ft | 167 kts | 153° |
| 2026-05-04 20:55 | 47.58677 | -122.35036 | 1133 ft | 161 kts | 152° |
| 2026-05-04 20:55 | 47.57720 | -122.34233 | 925 ft | 153 kts | 152° |
| 2026-05-04 20:55 | 47.56855 | -122.33501 | 723 ft | 136 kts | 152° |
| 2026-05-04 20:55 | 47.56053 | -122.32824 | 543 ft | 131 kts | 152° |
| 2026-05-04 20:56 | 47.55268 | -122.32161 | 374 ft | 129 kts | 152° |
| 2026-05-04 20:56 | 47.54486 | -122.31503 | 155 ft | 132 kts | 152° |
| 2026-05-04 20:56 | 47.53699 | -122.30833 | 27 ft | 124 kts | 151° |
| 2026-05-04 20:56 | 47.53117 | -122.30343 | 26 ft | 68 kts | 150° |
| 2026-05-04 20:57 | 47.52838 | -122.30110 | 24 ft | 24 kts | 150° |
| 2026-05-04 20:57 | 47.52716 | -122.30006 | 24 ft | 9 kts | 147° |
| 2026-05-04 20:57 | 47.52716 | -122.29922 | 22 ft | 9 kts | 58° |
| 2026-05-04 20:57 | 47.52730 | -122.29850 | 24 ft | 4 kts | 105° |
| 2026-05-04 20:58 | 47.52711 | -122.29818 | 26 ft | 5 kts | 159° |
| 2026-05-04 20:58 | 47.52675 | -122.29801 | 25 ft | 6 kts | 163° |
| 2026-05-04 20:58 | 47.52627 | -122.29761 | 28 ft | 11 kts | 129° |
| 2026-05-04 20:58 | 47.52621 | -122.29657 | 28 ft | 8 kts | 38° |
| 2026-05-04 20:59 | 47.52667 | -122.29646 | 26 ft | 9 kts | 324° |
| 2026-05-04 20:59 | 47.52693 | -122.29680 | 26 ft | 2 kts | 294° |
| 2026-05-04 20:59 | 47.52699 | -122.29689 | 26 ft | 0 kts | 328° |
| 2026-05-04 20:59 | 47.52698 | -122.29688 | 26 ft | 0 kts | 328° |